createdAt,value
2022-09-28T00:00:02.592Z,93.33
2022-09-28T00:01:02.622Z,93.02
2022-09-28T00:02:02.663Z,93.38
2022-09-28T00:03:02.635Z,93.17
2022-09-28T00:04:02.696Z,93.38
2022-09-28T00:05:02.560Z,94.30
2022-09-28T00:06:02.647Z,93.59
2022-09-28T00:07:02.651Z,93.68
2022-09-28T00:08:02.633Z,93.99
2022-09-28T00:09:02.659Z,94.40
2022-09-28T00:10:02.639Z,93.89
2022-09-28T00:11:02.670Z,93.13
2022-09-28T00:12:02.628Z,93.27
2022-09-28T00:13:02.666Z,93.07
2022-09-28T00:14:02.637Z,93.13
2022-09-28T00:15:02.644Z,92.66
2022-09-28T00:16:02.586Z,92.97
2022-09-28T00:17:02.502Z,93.17
2022-09-28T00:18:02.587Z,93.38
2022-09-28T00:19:02.462Z,92.97
2022-09-28T00:20:02.465Z,93.27
2022-09-28T00:21:02.498Z,93.17
2022-09-28T00:22:02.499Z,92.86
2022-09-28T00:23:02.460Z,92.55
2022-09-28T00:24:02.518Z,92.76
2022-09-28T00:25:02.516Z,92.66
2022-09-28T00:26:02.541Z,92.55
2022-09-28T00:27:02.492Z,93.38
2022-09-28T00:28:02.509Z,93.38
2022-09-28T00:29:02.477Z,93.38
2022-09-28T00:30:02.501Z,93.59
2022-09-28T00:31:02.505Z,93.99
2022-09-28T00:32:02.948Z,93.79
2022-09-28T00:33:02.450Z,93.79
2022-09-28T00:34:02.501Z,93.79
2022-09-28T00:35:02.424Z,94.20
2022-09-28T00:36:02.362Z,94.10
2022-09-28T00:37:02.384Z,94.61
2022-09-28T00:38:02.332Z,95.43
2022-09-28T00:39:02.458Z,95.43
2022-09-28T00:40:02.316Z,95.23
2022-09-28T00:41:02.316Z,95.32
2022-09-28T00:42:02.470Z,95.32
2022-09-28T00:43:02.421Z,94.85
2022-09-28T00:44:02.380Z,95.32
2022-09-28T00:45:02.376Z,94.92
2022-09-28T00:46:02.433Z,95.32
2022-09-28T00:47:02.392Z,95.64
2022-09-28T00:48:02.409Z,95.74
2022-09-28T00:49:02.373Z,94.92
2022-09-28T00:50:02.354Z,95.84
2022-09-28T00:51:02.337Z,95.74
2022-09-28T00:52:02.451Z,94.92
2022-09-28T00:53:02.313Z,95.74
2022-09-28T00:54:02.219Z,95.32
2022-09-28T00:55:02.207Z,95.23
2022-09-28T00:56:02.203Z,95.02
2022-09-28T00:57:02.230Z,95.12
2022-09-28T00:58:02.203Z,95.32
2022-09-28T00:59:02.239Z,94.92
2022-09-28T01:00:02.183Z,94.92
2022-09-28T01:01:02.233Z,95.23
2022-09-28T01:02:02.202Z,95.32
2022-09-28T01:03:02.253Z,94.81
2022-09-28T01:04:02.296Z,95.12
2022-09-28T01:05:02.220Z,94.81
2022-09-28T01:06:02.242Z,94.40
2022-09-28T01:07:02.301Z,94.71
2022-09-28T01:08:02.224Z,94.77
2022-09-28T01:09:02.201Z,93.95
2022-09-28T01:10:02.302Z,94.98
2022-09-28T01:11:02.234Z,94.30
2022-09-28T01:12:02.184Z,94.10
2022-09-28T01:13:02.187Z,94.71
2022-09-28T01:14:02.096Z,94.87
2022-09-28T01:15:02.119Z,95.02
2022-09-28T01:16:02.148Z,95.32
2022-09-28T01:17:02.151Z,95.17
2022-09-28T01:18:02.192Z,94.20
2022-09-28T01:19:02.157Z,93.89
2022-09-28T01:20:02.048Z,94.30
2022-09-28T01:21:02.170Z,94.71
2022-09-28T01:22:02.207Z,95.12
2022-09-28T01:23:02.030Z,95.47
2022-09-28T01:24:02.200Z,94.92
2022-09-28T01:25:02.125Z,95.64
2022-09-28T01:26:02.071Z,95.12
2022-09-28T01:27:02.088Z,94.92
2022-09-28T01:28:02.066Z,94.81
2022-09-28T01:29:02.020Z,95.68
2022-09-28T01:30:02.079Z,96.04
2022-09-28T01:31:02.052Z,95.84
2022-09-28T01:32:02.099Z,94.71
2022-09-28T01:33:02.006Z,95.94
2022-09-28T01:34:01.962Z,95.32
2022-09-28T01:35:02.031Z,95.84
2022-09-28T01:36:01.968Z,96.15
2022-09-28T01:37:02.108Z,94.81
2022-09-28T01:38:01.950Z,95.59
2022-09-28T01:39:02.015Z,96.10
2022-09-28T01:40:02.002Z,95.84
2022-09-28T01:41:01.917Z,94.92
2022-09-28T01:42:01.988Z,96.15
2022-09-28T01:43:02.131Z,94.92
2022-09-28T01:44:01.881Z,95.23
2022-09-28T01:45:02.036Z,95.32
2022-09-28T01:46:02.098Z,96.35
2022-09-28T01:47:01.878Z,95.23
2022-09-28T01:48:01.961Z,96.45
2022-09-28T01:49:01.947Z,95.43
2022-09-28T01:50:01.907Z,95.43
2022-09-28T01:51:01.921Z,95.98
2022-09-28T01:52:01.831Z,96.45
2022-09-28T01:53:01.846Z,96.45
2022-09-28T01:54:01.863Z,96.56
2022-09-28T01:55:01.773Z,96.66
2022-09-28T01:56:02.838Z,96.77
2022-09-28T01:57:01.882Z,96.45
2022-09-28T01:58:01.864Z,96.25
2022-09-28T01:59:01.829Z,97.07
2022-09-28T02:00:01.900Z,97.12
2022-09-28T02:01:01.876Z,97.07
2022-09-28T02:02:01.859Z,97.22
2022-09-28T02:03:01.850Z,97.32
2022-09-28T02:04:01.912Z,97.17
2022-09-28T02:05:01.761Z,97.63
2022-09-28T02:06:01.860Z,97.69
2022-09-28T02:07:01.828Z,97.28
2022-09-28T02:08:01.724Z,97.28
2022-09-28T02:09:01.808Z,97.38
2022-09-28T02:10:01.918Z,97.22
2022-09-28T02:11:01.716Z,97.42
2022-09-28T02:12:01.781Z,97.07
2022-09-28T02:13:01.761Z,97.12
2022-09-28T02:14:01.672Z,97.12
2022-09-28T02:15:01.721Z,97.17
2022-09-28T02:16:01.727Z,97.22
2022-09-28T02:17:01.668Z,97.17
2022-09-28T02:18:01.690Z,97.38
2022-09-28T02:19:02.462Z,97.17
2022-09-28T02:20:02.679Z,96.40
2022-09-28T02:21:01.641Z,96.77
2022-09-28T02:22:01.718Z,96.91
2022-09-28T02:23:01.618Z,96.70
2022-09-28T02:24:01.714Z,97.22
2022-09-28T02:25:01.693Z,97.22
2022-09-28T02:26:01.625Z,96.97
2022-09-28T02:27:01.711Z,97.17
2022-09-28T02:28:01.695Z,97.28
2022-09-28T02:29:01.583Z,96.97
2022-09-28T02:30:01.672Z,96.25
2022-09-28T02:31:01.783Z,96.77
2022-09-28T02:32:01.588Z,96.56
2022-09-28T02:33:01.743Z,96.25
2022-09-28T02:34:01.639Z,96.87
2022-09-28T02:35:01.519Z,96.87
2022-09-28T02:36:01.638Z,96.66
2022-09-28T02:37:01.653Z,96.77
2022-09-28T02:38:01.520Z,96.97
2022-09-28T02:39:01.523Z,96.82
2022-09-28T02:40:01.522Z,96.87
2022-09-28T02:41:01.551Z,96.56
2022-09-28T02:42:02.922Z,96.25
2022-09-28T02:43:01.565Z,96.56
2022-09-28T02:44:01.454Z,96.56
2022-09-28T02:45:01.461Z,95.89
2022-09-28T02:46:01.477Z,96.40
2022-09-28T02:47:01.456Z,96.35
2022-09-28T02:48:01.609Z,96.40
2022-09-28T02:49:20.347Z,96.35
2022-09-28T02:50:03.440Z,96.25
2022-09-28T02:51:01.518Z,96.35
2022-09-28T02:52:01.544Z,96.45
2022-09-28T02:53:01.430Z,96.45
2022-09-28T02:54:01.558Z,96.45
2022-09-28T02:55:01.483Z,96.35
2022-09-28T02:56:02.412Z,96.25
2022-09-28T02:57:01.525Z,95.94
2022-09-28T02:58:01.520Z,95.53
2022-09-28T02:59:01.389Z,95.53
2022-09-28T03:00:01.510Z,95.32
2022-09-28T03:01:01.427Z,96.25
2022-09-28T03:02:01.428Z,95.43
2022-09-28T03:03:01.374Z,95.02
2022-09-28T03:04:02.455Z,96.04
2022-09-28T03:05:01.338Z,95.84
2022-09-28T03:06:01.371Z,95.32
2022-09-28T03:07:01.322Z,94.96
2022-09-28T03:08:01.306Z,94.81
2022-09-28T03:09:01.461Z,95.84
2022-09-28T03:10:01.384Z,95.94
2022-09-28T03:11:01.320Z,95.12
2022-09-28T03:12:01.458Z,95.74
2022-09-28T03:13:01.381Z,95.90
2022-09-28T03:14:01.252Z,95.07
2022-09-28T03:15:01.418Z,94.67
2022-09-28T03:16:01.384Z,95.59
2022-09-28T03:17:01.241Z,94.87
2022-09-28T03:18:01.352Z,94.98
2022-09-28T03:19:01.370Z,95.32
2022-09-28T03:20:01.250Z,95.23
2022-09-28T03:21:01.290Z,94.40
2022-09-28T03:22:01.370Z,94.92
2022-09-28T03:23:23.407Z,95.53
2022-09-28T03:24:03.233Z,95.84
2022-09-28T03:25:01.309Z,95.02
2022-09-28T03:26:01.211Z,95.98
2022-09-28T03:27:01.179Z,95.12
2022-09-28T03:28:01.158Z,96.04
2022-09-28T03:29:01.145Z,96.15
2022-09-28T03:30:01.537Z,94.81
2022-09-28T03:31:01.230Z,95.64
2022-09-28T03:32:01.224Z,95.43
2022-09-28T03:33:01.253Z,95.84
2022-09-28T03:34:01.207Z,95.64
2022-09-28T03:35:01.128Z,95.47
2022-09-28T03:36:01.267Z,95.47
2022-09-28T03:37:01.168Z,95.89
2022-09-28T03:38:01.109Z,94.76
2022-09-28T03:39:01.177Z,96.04
2022-09-28T03:40:01.214Z,94.92
2022-09-28T03:41:01.161Z,96.35
2022-09-28T03:42:01.213Z,95.37
2022-09-28T03:43:01.183Z,96.30
2022-09-28T03:44:01.070Z,95.17
2022-09-28T03:45:01.154Z,96.19
2022-09-28T03:46:01.409Z,95.27
2022-09-28T03:47:01.045Z,95.47
2022-09-28T03:48:01.041Z,95.47
2022-09-28T03:49:01.025Z,95.17
2022-09-28T03:50:01.037Z,94.85
2022-09-28T03:51:01.160Z,95.72
2022-09-28T03:52:01.041Z,95.06
2022-09-28T03:53:00.998Z,95.31
2022-09-28T03:54:00.969Z,95.62
2022-09-28T03:55:00.995Z,96.09
2022-09-28T03:56:00.969Z,96.03
2022-09-28T03:57:01.076Z,95.83
2022-09-28T03:58:01.053Z,95.93
2022-09-28T03:59:01.060Z,95.98
2022-09-28T04:00:01.013Z,95.89
2022-09-28T04:01:01.116Z,96.09
2022-09-28T04:02:00.957Z,96.40
2022-09-28T04:03:01.173Z,96.30
2022-09-28T04:04:01.001Z,95.93
2022-09-28T04:05:00.912Z,95.78
2022-09-28T04:06:00.971Z,96.19
2022-09-28T04:07:00.988Z,95.68
2022-09-28T04:08:01.889Z,95.68
2022-09-28T04:09:00.976Z,95.89
2022-09-28T04:10:00.988Z,96.03
2022-09-28T04:11:00.854Z,95.89
2022-09-28T04:12:04.142Z,96.30
2022-09-28T04:13:01.886Z,95.98
2022-09-28T04:14:00.822Z,96.23
2022-09-28T04:15:00.944Z,96.03
2022-09-28T04:16:01.017Z,96.50
2022-09-28T04:17:00.895Z,96.50
2022-09-28T04:18:00.942Z,96.60
2022-09-28T04:19:00.929Z,96.75
2022-09-28T04:20:00.943Z,96.81
2022-09-28T04:21:00.870Z,96.30
2022-09-28T04:22:00.904Z,96.60
2022-09-28T04:23:00.769Z,96.50
2022-09-28T04:24:00.936Z,96.50
2022-09-28T04:25:00.869Z,96.55
2022-09-28T04:26:00.744Z,96.30
2022-09-28T04:27:00.853Z,95.98
2022-09-28T04:28:00.867Z,95.98
2022-09-28T04:29:05.447Z,95.98
2022-09-28T04:30:02.935Z,95.89
2022-09-28T04:31:00.734Z,96.19
2022-09-28T04:32:00.749Z,96.19
2022-09-28T04:33:00.723Z,95.78
2022-09-28T04:34:00.813Z,96.30
2022-09-28T04:35:00.702Z,95.78
2022-09-28T04:36:00.743Z,95.89
2022-09-28T04:37:00.687Z,95.57
2022-09-28T04:38:00.689Z,96.30
2022-09-28T04:39:01.516Z,95.98
2022-09-28T04:40:00.733Z,96.23
2022-09-28T04:41:00.817Z,96.85
2022-09-28T04:42:00.745Z,97.27
2022-09-28T04:43:00.742Z,97.67
2022-09-28T04:44:00.642Z,97.57
2022-09-28T04:45:00.759Z,97.88
2022-09-28T04:46:01.790Z,97.67
2022-09-28T04:47:04.324Z,97.88
2022-09-28T04:48:13.429Z,98.04
2022-09-28T04:49:00.604Z,97.37
2022-09-28T04:50:11.079Z,97.53
2022-09-28T04:51:00.582Z,97.16
2022-09-28T04:52:00.611Z,97.67
2022-09-28T04:53:00.554Z,97.88
2022-09-28T04:54:01.682Z,98.19
2022-09-28T04:55:00.572Z,98.39
2022-09-28T04:56:00.576Z,98.14
2022-09-28T04:57:00.683Z,98.08
2022-09-28T04:58:01.538Z,97.73
2022-09-28T04:59:00.610Z,97.47
2022-09-28T05:00:00.617Z,97.78
2022-09-28T05:01:00.741Z,97.78
2022-09-28T05:02:00.530Z,97.88
2022-09-28T05:03:00.668Z,97.88
2022-09-28T05:04:00.600Z,97.78
2022-09-28T05:05:00.520Z,97.94
2022-09-28T05:06:00.490Z,97.57
2022-09-28T05:07:00.490Z,97.83
2022-09-28T05:08:00.663Z,97.83
2022-09-28T05:09:00.474Z,97.57
2022-09-28T05:10:00.478Z,97.63
2022-09-28T05:11:00.446Z,97.63
2022-09-28T05:12:00.482Z,97.63
2022-09-28T05:13:00.500Z,97.94
2022-09-28T05:14:00.634Z,97.94
2022-09-28T05:15:00.426Z,97.94
2022-09-28T05:16:05.073Z,97.63
2022-09-28T05:17:02.501Z,97.73
2022-09-28T05:18:00.393Z,97.53
2022-09-28T05:19:00.542Z,97.63
2022-09-28T05:20:00.474Z,97.32
2022-09-28T05:21:00.387Z,97.32
2022-09-28T05:22:00.470Z,97.38
2022-09-28T05:23:00.455Z,97.42
2022-09-28T05:24:00.394Z,97.73
2022-09-28T05:25:00.517Z,97.73
2022-09-28T05:26:00.436Z,97.28
2022-09-28T05:27:00.436Z,97.28
2022-09-28T05:28:00.334Z,97.28
2022-09-28T05:29:00.357Z,96.87
2022-09-28T05:30:00.457Z,96.81
2022-09-28T05:31:00.328Z,96.70
2022-09-28T05:32:00.361Z,96.60
2022-09-28T05:33:00.343Z,97.53
2022-09-28T05:34:00.391Z,97.47
2022-09-28T05:35:00.435Z,98.08
2022-09-28T05:36:01.669Z,98.29
2022-09-28T05:37:01.395Z,98.29
2022-09-28T05:38:00.378Z,98.70
2022-09-28T05:39:00.259Z,98.85
2022-09-28T05:40:00.387Z,99.42
2022-09-28T05:41:03.283Z,99.01
2022-09-28T05:42:02.289Z,98.70
2022-09-28T05:43:00.315Z,98.91
2022-09-28T05:44:00.395Z,98.54
2022-09-28T05:45:00.243Z,98.80
2022-09-28T05:46:00.396Z,98.50
2022-09-28T05:47:00.647Z,98.29
2022-09-28T05:48:00.290Z,98.50
2022-09-28T05:49:00.279Z,98.25
2022-09-28T05:50:00.267Z,97.73
2022-09-28T05:51:00.184Z,97.63
2022-09-28T05:52:00.228Z,97.63
2022-09-28T05:53:32.154Z,97.78
2022-09-28T05:54:32.168Z,97.73
2022-09-28T05:55:32.465Z,97.63
2022-09-28T05:56:32.164Z,97.83
2022-09-28T05:57:00.161Z,97.94
2022-09-28T05:58:32.272Z,97.73
2022-09-28T05:59:32.123Z,97.99
2022-09-28T06:00:32.178Z,98.08
2022-09-28T06:01:32.368Z,98.14
2022-09-28T06:02:00.207Z,97.83
2022-09-28T06:03:00.154Z,97.78
2022-09-28T06:04:01.267Z,97.63
2022-09-28T06:05:00.227Z,97.73
2022-09-28T06:06:00.115Z,97.63
2022-09-28T06:07:00.172Z,97.42
2022-09-28T06:08:00.164Z,97.42
2022-09-28T06:09:00.198Z,97.32
2022-09-28T06:10:00.183Z,97.32
2022-09-28T06:11:00.134Z,97.16
2022-09-28T06:12:00.650Z,97.63
2022-09-28T06:13:00.020Z,97.73
2022-09-28T06:14:01.088Z,97.37
2022-09-28T06:15:00.100Z,96.44
2022-09-28T06:16:00.126Z,97.22
2022-09-28T06:17:00.199Z,97.12
2022-09-28T06:17:59.987Z,97.27
2022-09-28T06:19:00.640Z,97.12
2022-09-28T06:20:00.148Z,96.95
2022-09-28T06:20:59.973Z,97.37
2022-09-28T06:22:00.058Z,97.12
2022-09-28T06:23:00.111Z,97.42
2022-09-28T06:23:59.944Z,97.22
2022-09-28T06:25:01.130Z,96.91
2022-09-28T06:26:00.028Z,97.27
2022-09-28T06:26:59.967Z,97.06
2022-09-28T06:28:00.007Z,97.32
2022-09-28T06:29:00.087Z,97.06
2022-09-28T06:29:59.914Z,96.65
2022-09-28T06:31:00.182Z,96.30
2022-09-28T06:31:59.908Z,96.14
2022-09-28T06:32:59.911Z,95.89
2022-09-28T06:34:00.067Z,95.57
2022-09-28T06:34:59.893Z,95.98
2022-09-28T06:35:59.899Z,95.78
2022-09-28T06:37:00.036Z,95.93
2022-09-28T06:37:59.929Z,95.37
2022-09-28T06:38:59.852Z,96.40
2022-09-28T06:39:59.941Z,95.47
2022-09-28T06:41:00.093Z,95.89
2022-09-28T06:41:59.843Z,95.89
2022-09-28T06:42:59.946Z,95.89
2022-09-28T06:43:59.981Z,96.19
2022-09-28T06:44:59.804Z,94.76
2022-09-28T06:46:00.020Z,95.57
2022-09-28T06:46:59.920Z,95.89
2022-09-28T06:47:59.783Z,95.27
2022-09-28T06:48:59.867Z,94.81
2022-09-28T06:49:59.846Z,95.17
2022-09-28T06:50:59.758Z,94.71
2022-09-28T06:52:00.243Z,94.30
2022-09-28T06:52:59.756Z,93.95
2022-09-28T06:53:59.790Z,92.86
2022-09-28T06:54:59.745Z,92.25
2022-09-28T06:55:59.816Z,93.17
2022-09-28T06:56:59.714Z,92.25
2022-09-28T06:57:59.734Z,92.14
2022-09-28T06:58:59.720Z,91.63
2022-09-28T06:59:59.682Z,92.66
2022-09-28T07:00:59.751Z,92.97
2022-09-28T07:02:00.719Z,92.93
2022-09-28T07:02:59.710Z,92.86
2022-09-28T07:03:59.742Z,93.02
2022-09-28T07:04:59.797Z,91.22
2022-09-28T07:05:59.645Z,91.18
2022-09-28T07:06:59.820Z,92.21
2022-09-28T07:07:59.769Z,92.41
2022-09-28T07:09:15.508Z,92.21
2022-09-28T07:10:01.657Z,91.18
2022-09-28T07:10:59.680Z,90.36
2022-09-28T07:11:59.662Z,90.56
2022-09-28T07:12:59.700Z,90.36
2022-09-28T07:13:59.710Z,91.28
2022-09-28T07:14:59.584Z,92.00
2022-09-28T07:15:59.705Z,91.18
2022-09-28T07:17:13.293Z,90.05
2022-09-28T07:18:03.481Z,91.69
2022-09-28T07:19:00.591Z,91.90
2022-09-28T07:20:05.890Z,92.57
2022-09-28T07:21:01.581Z,92.06
2022-09-28T07:22:05.126Z,91.14
2022-09-28T07:23:13.949Z,90.46
2022-09-28T07:24:01.771Z,90.73
2022-09-28T07:24:59.567Z,91.50
2022-09-28T07:25:59.662Z,91.50
2022-09-28T07:26:59.705Z,90.48
2022-09-28T07:27:59.510Z,89.87
2022-09-28T07:28:59.602Z,89.04
2022-09-28T07:29:59.713Z,89.19
2022-09-28T07:30:59.517Z,90.32
2022-09-28T07:31:59.747Z,89.81
2022-09-28T07:32:59.641Z,90.11
2022-09-28T07:33:59.435Z,90.11
2022-09-28T07:34:59.646Z,90.28
2022-09-28T07:35:59.547Z,89.04
2022-09-28T07:36:59.444Z,90.32
2022-09-28T07:37:59.528Z,90.22
2022-09-28T07:38:59.495Z,90.93
2022-09-28T07:39:59.540Z,91.82
2022-09-28T07:40:59.498Z,91.09
2022-09-28T07:42:02.529Z,90.62
2022-09-28T07:43:00.384Z,90.07
2022-09-28T07:43:59.481Z,90.37
2022-09-28T07:44:59.393Z,90.62
2022-09-28T07:45:59.448Z,90.58
2022-09-28T07:46:59.448Z,90.58
2022-09-28T07:47:59.496Z,90.28
2022-09-28T07:48:59.354Z,89.66
2022-09-28T07:49:59.437Z,89.15
2022-09-28T07:50:59.503Z,89.15
2022-09-28T07:51:59.341Z,89.87
2022-09-28T07:52:59.458Z,89.66
2022-09-28T07:53:59.405Z,88.84
2022-09-28T07:55:03.350Z,89.21
2022-09-28T07:56:00.764Z,88.29
2022-09-28T07:56:59.271Z,88.39
2022-09-28T07:58:00.377Z,88.56
2022-09-28T07:58:59.427Z,88.45
2022-09-28T07:59:59.361Z,87.57
2022-09-28T08:00:59.391Z,86.96
2022-09-28T08:01:59.518Z,87.61
2022-09-28T08:02:59.288Z,88.43
2022-09-28T08:03:59.236Z,88.59
2022-09-28T08:04:59.232Z,89.11
2022-09-28T08:05:59.248Z,89.27
2022-09-28T08:06:59.324Z,88.65
2022-09-28T08:07:59.862Z,86.71
2022-09-28T08:08:59.200Z,86.57
2022-09-28T08:09:59.299Z,85.03
2022-09-28T08:10:59.284Z,85.50
2022-09-28T08:11:59.323Z,83.25
2022-09-28T08:13:02.098Z,84.28
2022-09-28T08:13:59.306Z,84.34
2022-09-28T08:14:59.251Z,83.18
2022-09-28T08:15:59.240Z,83.07
2022-09-28T08:16:59.268Z,80.83
2022-09-28T08:18:02.627Z,81.27
2022-09-28T08:19:00.248Z,82.26
2022-09-28T08:19:59.212Z,82.77
2022-09-28T08:20:59.187Z,82.77
2022-09-28T08:21:59.188Z,82.15
2022-09-28T08:22:59.138Z,82.40
2022-09-28T08:23:59.119Z,82.20
2022-09-28T08:24:59.219Z,82.20
2022-09-28T08:25:59.087Z,82.29
2022-09-28T08:26:59.086Z,81.27
2022-09-28T08:27:59.060Z,80.35
2022-09-28T08:28:59.093Z,81.48
2022-09-28T08:29:59.123Z,82.75
2022-09-28T08:30:59.209Z,81.27
2022-09-28T08:32:01.581Z,80.46
2022-09-28T08:33:00.121Z,80.46
2022-09-28T08:33:59.172Z,79.94
2022-09-28T08:34:59.162Z,81.38
2022-09-28T08:35:59.104Z,81.21
2022-09-28T08:36:59.145Z,80.56
2022-09-28T08:37:59.090Z,80.25
2022-09-28T08:38:59.095Z,81.79
2022-09-28T08:39:59.088Z,81.17
2022-09-28T08:40:59.133Z,81.38
2022-09-28T08:41:59.078Z,82.60
2022-09-28T08:42:58.978Z,83.11
2022-09-28T08:43:58.944Z,83.59
2022-09-28T08:44:59.070Z,77.73
2022-09-28T08:45:59.012Z,79.23
2022-09-28T08:46:58.948Z,79.84
2022-09-28T08:47:59.049Z,79.33
2022-09-28T08:49:24.271Z,79.13
2022-09-28T08:50:00.959Z,79.53
2022-09-28T08:50:59.015Z,80.69
2022-09-28T08:51:58.997Z,80.39
2022-09-28T08:52:58.966Z,79.64
2022-09-28T08:53:58.971Z,80.39
2022-09-28T08:54:58.884Z,81.10
2022-09-28T08:55:59.031Z,81.62
2022-09-28T08:56:58.960Z,80.49
2022-09-28T08:57:59.085Z,79.78
2022-09-28T08:58:58.936Z,80.39
2022-09-28T08:59:59.087Z,80.46
2022-09-28T09:00:59.114Z,80.76
2022-09-28T09:01:58.937Z,81.17
2022-09-28T09:02:58.857Z,81.51
2022-09-28T09:03:58.933Z,81.10
2022-09-28T09:04:58.804Z,79.43
2022-09-28T09:05:58.881Z,79.43
2022-09-28T09:06:58.948Z,78.52
2022-09-28T09:07:58.874Z,78.45
2022-09-28T09:08:58.882Z,79.64
2022-09-28T09:09:58.836Z,80.42
2022-09-28T09:10:59.677Z,78.48
2022-09-28T09:11:58.893Z,78.38
2022-09-28T09:12:58.864Z,78.00
2022-09-28T09:13:58.826Z,78.88
2022-09-28T09:14:58.815Z,78.88
2022-09-28T09:15:58.756Z,80.32
2022-09-28T09:17:00.475Z,80.69
2022-09-28T09:17:59.771Z,78.23
2022-09-28T09:18:58.722Z,76.90
2022-09-28T09:19:59.806Z,78.78
2022-09-28T09:20:58.888Z,79.60
2022-09-28T09:21:58.805Z,79.64
2022-09-28T09:22:58.897Z,78.92
2022-09-28T09:23:58.794Z,79.02
2022-09-28T09:24:58.801Z,79.84
2022-09-28T09:25:58.782Z,80.46
2022-09-28T09:26:58.817Z,80.97
2022-09-28T09:27:58.706Z,82.29
2022-09-28T09:28:58.766Z,81.17
2022-09-28T09:29:58.721Z,81.38
2022-09-28T09:30:58.749Z,83.32
2022-09-28T09:31:58.616Z,82.91
2022-09-28T09:32:58.589Z,82.50
2022-09-28T09:33:58.704Z,80.56
2022-09-28T09:34:58.730Z,80.46
2022-09-28T09:35:58.757Z,81.07
2022-09-28T09:36:58.664Z,80.29
2022-09-28T09:37:58.803Z,81.58
2022-09-28T09:38:58.693Z,81.38
2022-09-28T09:39:59.712Z,82.23
2022-09-28T09:40:58.688Z,83.11
2022-09-28T09:41:58.674Z,81.58
2022-09-28T09:42:58.718Z,82.91
2022-09-28T09:43:58.685Z,82.81
2022-09-28T09:44:58.629Z,83.01
2022-09-28T09:45:58.566Z,82.70
2022-09-28T09:46:58.511Z,82.13
2022-09-28T09:47:58.564Z,84.89
2022-09-28T09:48:58.528Z,82.95
2022-09-28T09:49:58.512Z,81.27
2022-09-28T09:50:58.554Z,84.07
2022-09-28T09:51:58.488Z,82.13
2022-09-28T09:52:58.541Z,81.31
2022-09-28T09:53:58.536Z,82.84
2022-09-28T09:54:58.451Z,82.34
2022-09-28T09:55:58.584Z,82.84
2022-09-28T09:56:58.550Z,81.38
2022-09-28T09:57:58.528Z,83.19
2022-09-28T09:58:58.527Z,84.93
2022-09-28T09:59:58.497Z,83.60
2022-09-28T10:00:58.568Z,82.51
2022-09-28T10:01:58.891Z,82.00
2022-09-28T10:02:58.566Z,83.17
2022-09-28T10:03:58.385Z,81.01
2022-09-28T10:04:58.374Z,83.27
2022-09-28T10:05:58.479Z,83.27
2022-09-28T10:06:58.442Z,83.06
2022-09-28T10:07:58.382Z,83.68
2022-09-28T10:08:58.363Z,83.98
2022-09-28T10:09:58.373Z,84.09
2022-09-28T10:10:58.354Z,83.54
2022-09-28T10:11:58.434Z,83.23
2022-09-28T10:12:58.463Z,83.50
2022-09-28T10:13:58.470Z,83.29
2022-09-28T10:14:58.381Z,83.56
2022-09-28T10:15:58.416Z,83.46
2022-09-28T10:16:58.425Z,83.11
2022-09-28T10:17:58.423Z,84.48
2022-09-28T10:18:58.441Z,83.93
2022-09-28T10:19:58.361Z,84.03
2022-09-28T10:20:58.382Z,84.61
2022-09-28T10:21:58.390Z,84.67
2022-09-28T10:22:58.249Z,84.06
2022-09-28T10:23:58.300Z,83.07
2022-09-28T10:24:58.253Z,84.09
2022-09-28T10:25:58.359Z,83.07
2022-09-28T10:26:58.256Z,83.14
2022-09-28T10:27:58.219Z,80.99
2022-09-28T10:28:58.247Z,80.07
2022-09-28T10:29:58.370Z,78.75
2022-09-28T10:30:58.370Z,80.55
2022-09-28T10:31:58.364Z,79.32
2022-09-28T10:32:58.350Z,79.63
2022-09-28T10:33:58.337Z,79.18
2022-09-28T10:34:58.262Z,80.07
2022-09-28T10:35:58.737Z,80.27
2022-09-28T10:36:58.347Z,80.94
2022-09-28T10:37:58.249Z,79.62
2022-09-28T10:38:58.268Z,80.09
2022-09-28T10:39:58.284Z,80.29
2022-09-28T10:40:58.202Z,80.84
2022-09-28T10:41:58.125Z,80.23
2022-09-28T10:42:58.210Z,80.40
2022-09-28T10:43:58.246Z,79.17
2022-09-28T10:44:59.257Z,76.42
2022-09-28T10:45:58.269Z,78.05
2022-09-28T10:46:58.247Z,77.85
2022-09-28T10:47:58.214Z,77.44
2022-09-28T10:48:58.169Z,77.78
2022-09-28T10:49:58.229Z,77.44
2022-09-28T10:50:58.167Z,76.01
2022-09-28T10:51:58.154Z,76.90
2022-09-28T10:52:58.174Z,74.76
2022-09-28T10:53:58.138Z,76.04
2022-09-28T10:54:58.202Z,76.04
2022-09-28T10:55:58.165Z,73.10
2022-09-28T10:56:58.025Z,75.57
2022-09-28T10:57:57.994Z,77.40
2022-09-28T10:58:58.088Z,76.62
2022-09-28T10:59:58.089Z,73.26
2022-09-28T11:00:58.161Z,74.32
2022-09-28T11:01:58.086Z,76.66
2022-09-28T11:02:58.417Z,73.60
2022-09-28T11:03:58.031Z,77.24
2022-09-28T11:04:58.048Z,74.21
2022-09-28T11:05:58.074Z,73.54
2022-09-28T11:07:58.056Z,76.70
2022-09-28T11:08:58.029Z,76.56
2022-09-28T11:09:57.929Z,73.33
2022-09-28T11:10:57.960Z,73.03
2022-09-28T11:11:58.062Z,74.79
2022-09-28T11:12:57.892Z,74.18
2022-09-28T11:13:57.930Z,74.32
2022-09-28T11:14:57.878Z,75.61
2022-09-28T11:15:57.875Z,76.73
2022-09-28T11:16:57.948Z,77.65
2022-09-28T11:17:57.889Z,76.43
2022-09-28T11:18:57.990Z,74.18
2022-09-28T11:19:57.948Z,74.38
2022-09-28T11:20:57.941Z,74.38
2022-09-28T11:21:57.911Z,75.51
2022-09-28T11:22:57.961Z,76.63
2022-09-28T11:23:57.906Z,74.38
2022-09-28T11:24:57.911Z,75.71
2022-09-28T11:25:57.897Z,76.09
2022-09-28T11:26:57.878Z,75.27
2022-09-28T11:27:57.910Z,77.00
2022-09-28T11:28:57.810Z,75.16
2022-09-28T11:29:57.788Z,76.46
2022-09-28T11:30:57.830Z,76.73
2022-09-28T11:31:57.751Z,75.95
2022-09-28T11:32:57.748Z,76.97
2022-09-28T11:33:57.856Z,76.76
2022-09-28T11:35:00.084Z,77.17
2022-09-28T11:35:58.937Z,75.74
2022-09-28T11:37:01.588Z,75.81
2022-09-28T11:37:58.935Z,76.35
2022-09-28T11:38:57.766Z,75.44
2022-09-28T11:39:57.854Z,75.68
2022-09-28T11:40:57.827Z,75.74
2022-09-28T11:41:57.877Z,73.43
2022-09-28T11:42:57.833Z,74.66
2022-09-28T11:43:57.779Z,74.73
2022-09-28T11:44:57.813Z,75.85
2022-09-28T11:45:57.792Z,76.53
2022-09-28T11:46:57.730Z,75.40
2022-09-28T11:47:57.747Z,75.10
2022-09-28T11:48:57.647Z,74.90
2022-09-28T11:49:57.648Z,73.40
2022-09-28T11:50:57.763Z,73.30
2022-09-28T11:51:57.730Z,73.71
2022-09-28T11:52:57.728Z,72.58
2022-09-28T11:53:57.714Z,73.40
2022-09-28T11:54:57.624Z,72.89
2022-09-28T11:55:57.794Z,72.92
2022-09-28T11:56:57.695Z,74.01
2022-09-28T11:57:57.732Z,72.99
2022-09-28T11:58:57.754Z,72.75
2022-09-28T11:59:57.748Z,73.36
2022-09-28T12:00:57.643Z,72.96
2022-09-28T12:01:57.830Z,73.57
2022-09-28T12:02:58.407Z,72.92
2022-09-28T12:03:57.564Z,73.33
2022-09-28T12:04:57.564Z,73.26
2022-09-28T12:05:57.598Z,72.75
2022-09-28T12:06:57.600Z,73.26
2022-09-28T12:07:57.582Z,70.61
2022-09-28T12:08:57.579Z,70.51
2022-09-28T12:09:57.619Z,71.15
2022-09-28T12:10:57.586Z,71.15
2022-09-28T12:11:57.583Z,71.77
2022-09-28T12:12:57.662Z,71.36
2022-09-28T12:13:57.563Z,71.67
2022-09-28T12:14:57.614Z,71.56
2022-09-28T13:33:57.133Z,51.59
2022-09-28T13:34:58.113Z,52.82
2022-09-28T13:35:58.096Z,59.22
2022-09-28T13:36:58.197Z,59.31
2022-09-28T13:37:58.084Z,61.35
2022-09-28T13:38:58.104Z,61.91
2022-09-28T13:39:58.042Z,63.92
2022-09-28T13:40:58.073Z,66.83
2022-09-28T13:41:58.059Z,68.66
2022-09-28T13:42:58.170Z,67.94
2022-09-28T13:43:58.131Z,67.84
2022-09-28T13:44:58.084Z,68.15
2022-09-28T13:45:59.122Z,67.13
2022-09-28T13:46:58.051Z,67.64
2022-09-28T13:47:58.057Z,68.08
2022-09-28T13:48:58.044Z,68.89
2022-09-28T13:49:58.183Z,71.23
2022-09-28T13:50:58.054Z,72.08
2022-09-28T13:51:58.121Z,72.96
2022-09-28T13:52:58.024Z,74.25
2022-09-28T13:53:58.150Z,78.02
2022-09-28T13:54:57.918Z,74.62
2022-09-28T13:55:58.014Z,77.17
2022-09-28T13:56:57.999Z,76.05
2022-09-28T13:57:57.910Z,76.32
2022-09-28T13:58:57.994Z,75.54
2022-09-28T13:59:58.149Z,77.68
2022-09-28T14:00:57.999Z,77.11
2022-09-28T14:01:59.821Z,76.02
2022-09-28T14:02:59.055Z,76.97
2022-09-28T14:03:57.953Z,78.41
2022-09-28T14:04:57.920Z,78.71
2022-09-28T14:05:57.924Z,76.93
2022-09-28T14:06:57.970Z,76.43
2022-09-28T14:07:57.887Z,75.20
2022-09-28T14:08:57.835Z,76.56
2022-09-28T14:09:57.847Z,75.41
2022-09-28T14:10:57.882Z,75.51